Time;durP1;ratioP1;P1;durP2;ratioP2;P2;SDS_P1;SDS_P2;PMS_P1;PMS_P2;Temp;Humidity;BMP_temperature;BMP_pressure;BME280_temperature;BME280_humidity;BME280_pressure;Samples;Min_cycle;Max_cycle;Signal;HPM_P1;HPM_P2
2022/07/14 00:00:29;;;;;;;3.15;1.70;;;;;;;24.94;45.59;100605.63;4932597;28;20056;-73
2022/07/14 00:02:56;;;;;;;2.13;1.92;;;;;;;24.93;45.87;100615.59;4933595;28;20058;-72
2022/07/14 00:05:23;;;;;;;4.40;2.35;;;;;;;24.92;45.69;100619.31;4932023;28;20047;-73
2022/07/14 00:07:50;;;;;;;3.75;2.30;;;;;;;24.92;45.71;100613.03;4931615;28;20871;-73
2022/07/14 00:10:16;;;;;;;3.72;2.20;;;;;;;24.90;45.95;100613.19;4932895;28;20043;-74
2022/07/14 00:12:43;;;;;;;3.38;1.90;;;;;;;24.88;45.98;100600.81;4929521;28;20160;-73
2022/07/14 00:15:10;;;;;;;3.22;2.10;;;;;;;24.88;46.00;100604.38;4933361;28;20063;-73
2022/07/14 00:17:37;;;;;;;2.55;2.08;;;;;;;24.86;46.27;100605.56;4932510;28;20329;-73
2022/07/14 00:20:04;;;;;;;3.47;2.00;;;;;;;24.88;46.06;100608.94;4927556;28;20143;-73
2022/07/14 00:22:31;;;;;;;2.97;2.17;;;;;;;24.89;45.88;100610.66;4930394;28;20052;-74
2022/07/14 00:25:00;;;;;;;3.08;2.15;;;;;;;24.86;45.81;100614.53;4934776;28;20412;-73
2022/07/14 00:27:27;;;;;;;3.45;2.10;;;;;;;24.82;45.83;100610.44;4935403;28;20047;-74
2022/07/14 00:29:53;;;;;;;3.33;2.00;;;;;;;24.79;46.00;100611.59;4931984;28;20070;-74
2022/07/14 00:32:20;;;;;;;3.60;2.15;;;;;;;24.68;46.12;100602.91;4932399;28;20070;-72
2022/07/14 00:34:47;;;;;;;4.53;2.17;;;;;;;24.56;46.60;100596.84;4931528;28;20508;-73
2022/07/14 00:37:14;;;;;;;3.70;2.00;;;;;;;24.62;46.44;100607.06;4932086;28;20056;-74
2022/07/14 00:39:56;;;;;;;3.55;2.40;;;;;;;24.53;46.46;100597.19;4931647;28;20095;-73
2022/07/14 00:42:41;;;;;;;4.82;2.83;;;;;;;24.59;46.90;100610.09;4928007;29;20456;-73
2022/07/14 00:45:10;;;;;;;2.42;2.20;;;;;;;24.57;46.91;100606.69;4932091;28;20584;-74
2022/07/14 00:47:37;;;;;;;2.95;2.15;;;;;;;24.55;47.21;100606.03;4931320;28;20052;-73
2022/07/14 00:50:06;;;;;;;2.65;2.08;;;;;;;24.52;47.20;100600.06;4932015;28;20643;-74
2022/07/14 00:52:40;;;;;;;3.45;2.03;;;;;;;24.52;47.21;100600.91;4931765;28;20115;-74
2022/07/14 00:55:08;;;;;;;3.92;2.10;;;;;;;24.49;47.28;100590.38;4932505;28;20155;-73
2022/07/14 00:57:35;;;;;;;2.60;1.98;;;;;;;24.51;47.42;100588.38;4931467;28;20051;-74
2022/07/14 01:00:05;;;;;;;2.85;2.42;;;;;;;24.40;46.80;100573.22;4931798;28;20054;-74
2022/07/14 01:02:31;;;;;;;4.32;2.17;;;;;;;24.48;46.95;100586.84;4931791;28;20047;-73
2022/07/14 01:04:58;;;;;;;4.63;2.55;;;;;;;24.40;47.03;100575.06;4932090;28;20173;-73
2022/07/14 01:07:25;;;;;;;2.80;2.38;;;;;;;24.36;47.35;100571.00;4930956;28;20051;-73
2022/07/14 01:09:52;;;;;;;2.85;2.33;;;;;;;24.29;47.66;100561.78;4931316;28;20051;-74
2022/07/14 01:12:18;;;;;;;3.63;2.47;;;;;;;24.41;47.63;100588.44;4932648;28;20055;-74
2022/07/14 01:14:45;;;;;;;4.47;2.40;;;;;;;24.36;48.29;100585.38;4933330;28;20497;-73
2022/07/14 01:17:12;;;;;;;3.60;1.92;;;;;;;24.29;48.55;100575.31;4932452;28;20420;-74
2022/07/14 01:19:39;;;;;;;4.80;2.80;;;;;;;24.28;48.58;100581.75;4930122;28;20103;-73
2022/07/14 01:22:06;;;;;;;2.78;2.40;;;;;;;24.30;48.43;100587.84;4932007;28;20047;-72
2022/07/14 01:24:33;;;;;;;3.72;2.33;;;;;;;24.24;48.73;100602.03;4930820;28;20047;-73
2022/07/14 01:27:00;;;;;;;3.15;2.40;;;;;;;24.23;48.83;100595.75;4936617;28;20537;-72
2022/07/14 01:29:27;;;;;;;2.95;2.30;;;;;;;24.21;49.12;100591.47;4934928;28;20099;-73
2022/07/14 01:31:54;;;;;;;4.97;2.58;;;;;;;24.21;48.95;100586.06;4932598;28;20094;-73
2022/07/14 01:34:20;;;;;;;3.45;2.80;;;;;;;24.23;48.90;100573.22;4931921;28;20050;-74
2022/07/14 01:36:49;;;;;;;2.78;2.53;;;;;;;24.24;49.16;100577.66;4934033;28;20054;-73
2022/07/14 01:39:16;;;;;;;3.13;2.10;;;;;;;24.20;49.65;100577.09;4932217;28;20063;-73
2022/07/14 01:41:43;;;;;;;3.25;2.60;;;;;;;24.10;50.21;100584.41;4928984;28;20051;-74
2022/07/14 01:44:10;;;;;;;5.53;2.42;;;;;;;23.95;50.49;100592.22;4933711;28;20515;-74
2022/07/14 01:46:37;;;;;;;2.80;2.40;;;;;;;23.82;50.78;100580.06;4932091;28;20137;-73
2022/07/14 01:49:05;;;;;;;2.15;1.95;;;;;;;23.79;51.15;100582.06;4931090;28;20094;-73
2022/07/14 01:51:32;;;;;;;3.95;2.53;;;;;;;23.74;51.06;100580.84;4932077;28;20048;-74
2022/07/14 01:53:58;;;;;;;3.30;2.50;;;;;;;23.46;51.34;100552.94;4931391;29;20059;-73
2022/07/14 01:56:25;;;;;;;4.90;2.50;;;;;;;23.56;51.43;100569.16;4928812;28;20052;-73
2022/07/14 01:58:52;;;;;;;4.82;2.33;;;;;;;23.61;51.45;100577.66;4930856;28;20044;-75
2022/07/14 02:04:04;;;;;;;2.78;2.00;;;;;;;23.52;50.76;100535.31;4930306;28;20091;-73
2022/07/14 02:06:31;;;;;;;3.67;2.13;;;;;;;23.56;50.94;100563.75;4931022;28;20052;-73
2022/07/14 02:08:58;;;;;;;2.85;2.10;;;;;;;23.30;51.01;100514.91;4931151;28;20048;-73
2022/07/14 02:14:11;;;;;;;3.65;2.15;;;;;;;23.43;51.38;100553.25;4931479;28;20415;-73
2022/07/14 02:16:38;;;;;;;2.38;1.83;;;;;;;23.39;51.59;100555.41;4931265;28;20059;-73
2022/07/14 02:19:05;;;;;;;2.80;2.50;;;;;;;23.33;51.71;100564.09;4930079;28;20055;-73
2022/07/14 02:21:33;;;;;;;3.88;2.10;;;;;;;23.09;52.12;100539.47;4929558;28;20051;-73
2022/07/14 02:24:00;;;;;;;3.72;2.20;;;;;;;23.15;52.53;100574.00;4931028;28;20115;-73
2022/07/14 02:26:27;;;;;;;2.58;2.38;;;;;;;23.15;52.70;100581.25;4930836;28;20055;-73
2022/07/14 02:28:53;;;;;;;2.63;2.42;;;;;;;23.12;52.07;100570.75;4932382;28;20055;-74
2022/07/14 02:31:20;;;;;;;2.55;2.22;;;;;;;23.10;51.63;100565.50;4926638;28;20052;-76
2022/07/14 02:33:47;;;;;;;4.10;2.40;;;;;;;23.08;51.54;100545.88;4930586;28;20048;-74
2022/07/14 02:36:15;;;;;;;5.95;2.15;;;;;;;23.07;51.56;100538.78;4932897;28;20048;-73
2022/07/14 02:38:42;;;;;;;2.13;1.90;;;;;;;23.06;51.85;100550.56;4927710;28;20048;-73
2022/07/14 02:41:09;;;;;;;2.50;2.00;;;;;;;23.02;52.01;100531.09;4930402;28;20063;-74
2022/07/14 02:43:36;;;;;;;2.75;2.08;;;;;;;23.03;52.16;100534.66;4934467;28;20060;-73
2022/07/14 02:46:03;;;;;;;2.67;1.73;;;;;;;23.06;52.19;100562.22;4937681;28;20060;-73
2022/07/14 02:48:30;;;;;;;2.65;1.80;;;;;;;23.01;51.75;100569.06;4932867;28;20385;-72
2022/07/14 02:50:59;;;;;;;3.67;1.95;;;;;;;22.83;51.80;100555.47;4935476;28;20154;-74
2022/07/14 02:53:26;;;;;;;2.55;2.08;;;;;;;22.96;51.67;100571.38;4934607;28;20051;-72
2022/07/14 02:55:53;;;;;;;2.15;1.95;;;;;;;22.87;51.74;100551.50;4934246;28;20055;-74
2022/07/14 02:58:21;;;;;;;3.63;1.88;;;;;;;22.89;52.37;100563.00;4933184;28;20075;-71
2022/07/14 03:00:48;;;;;;;4.53;1.90;;;;;;;22.85;52.33;100555.34;4932830;28;20051;-73
2022/07/14 03:03:16;;;;;;;2.78;1.95;;;;;;;22.85;52.10;100564.28;4933887;28;20059;-72
2022/07/14 03:05:43;;;;;;;2.50;1.90;;;;;;;22.81;52.28;100557.50;4931431;28;20040;-72
2022/07/14 03:08:10;;;;;;;2.45;1.80;;;;;;;22.84;52.20;100561.72;4934622;29;20072;-71
2022/07/14 03:10:36;;;;;;;2.63;1.88;;;;;;;22.78;51.85;100557.78;4932929;28;20640;-71
2022/07/14 03:13:03;;;;;;;2.10;1.90;;;;;;;22.64;51.87;100533.94;4934124;28;20071;-72
2022/07/14 03:15:30;;;;;;;4.57;1.90;;;;;;;22.75;52.21;100542.69;4933650;28;20067;-70
2022/07/14 03:17:56;;;;;;;4.43;1.77;;;;;;;22.78;52.13;100538.03;4931328;29;20103;-71
2022/07/14 03:20:23;;;;;;;2.65;1.90;;;;;;;22.80;51.99;100536.03;4932361;28;20070;-71
2022/07/14 03:22:50;;;;;;;2.28;1.85;;;;;;;22.80;52.01;100530.66;4932989;28;20099;-74
2022/07/14 03:25:17;;;;;;;2.45;1.88;;;;;;;22.82;51.97;100520.56;4933966;28;20547;-73
2022/07/14 03:27:49;;;;;;;3.20;1.70;;;;;;;22.71;51.79;100527.78;4925841;28;20114;-73
2022/07/14 03:30:16;;;;;;;2.10;1.88;;;;;;;22.72;52.00;100561.88;4933226;28;20103;-72
2022/07/14 03:32:43;;;;;;;2.00;1.73;;;;;;;22.64;52.42;100550.97;4932364;28;20457;-72
2022/07/14 03:35:09;;;;;;;4.32;1.80;;;;;;;22.69;52.35;100554.06;4933139;28;20059;-72
2022/07/14 03:37:36;;;;;;;3.53;2.03;;;;;;;22.70;52.02;100561.16;4932862;28;20126;-75
2022/07/14 03:40:04;;;;;;;3.25;1.88;;;;;;;22.66;52.24;100570.56;4932613;28;20055;-74
2022/07/14 03:42:31;;;;;;;2.08;1.55;;;;;;;22.63;52.26;100573.56;4932314;28;20091;-70
2022/07/14 03:44:58;;;;;;;2.15;1.80;;;;;;;22.40;52.14;100540.63;4932899;28;20052;-71
2022/07/14 03:47:25;;;;;;;2.42;1.70;;;;;;;22.47;52.00;100551.72;4932350;28;20051;-72
2022/07/14 03:49:52;;;;;;;2.55;1.80;;;;;;;22.59;52.25;100560.50;4932310;28;20128;-72
2022/07/14 03:52:18;;;;;;;2.28;1.67;;;;;;;22.65;51.97;100576.97;4932454;28;20450;-73
2022/07/14 03:54:46;;;;;;;1.83;1.63;;;;;;;22.66;51.92;100578.69;4932699;28;20481;-72
2022/07/14 03:57:14;;;;;;;2.95;1.90;;;;;;;22.57;52.02;100546.28;4933369;28;20055;-71
2022/07/14 03:59:41;;;;;;;4.75;1.80;;;;;;;22.72;51.83;100558.31;4932510;28;20059;-71
2022/07/14 04:02:09;;;;;;;2.60;1.80;;;;;;;22.70;51.86;100555.78;4933009;28;20504;-71
2022/07/14 04:04:36;;;;;;;2.35;2.00;;;;;;;22.66;52.17;100553.53;4932134;28;20080;-72
2022/07/14 04:07:04;;;;;;;3.10;2.00;;;;;;;22.54;52.18;100522.28;4933184;28;20047;-73
2022/07/14 04:09:31;;;;;;;3.53;2.15;;;;;;;22.66;52.18;100522.00;4931730;28;20059;-71
2022/07/14 04:11:58;;;;;;;2.20;1.75;;;;;;;22.73;52.51;100523.09;4932853;28;20044;-71
2022/07/14 04:14:25;;;;;;;3.88;1.60;;;;;;;22.72;52.10;100518.69;4931749;28;20147;-72
2022/07/14 04:16:52;;;;;;;3.30;1.98;;;;;;;22.65;52.23;100516.72;4933672;28;20831;-73
2022/07/14 04:19:20;;;;;;;3.08;1.85;;;;;;;22.67;52.29;100534.47;4931106;28;20055;-72
2022/07/14 04:21:46;;;;;;;2.58;1.83;;;;;;;22.58;52.44;100527.25;4930693;28;20576;-71
2022/07/14 04:24:13;;;;;;;3.42;1.88;;;;;;;22.55;52.60;100526.69;4932730;28;20111;-71
2022/07/14 04:26:40;;;;;;;2.40;1.70;;;;;;;22.61;52.61;100548.56;4932474;28;20095;-73
2022/07/14 04:29:07;;;;;;;4.82;2.10;;;;;;;22.60;52.77;100548.69;4931860;28;20103;-72
2022/07/14 04:31:34;;;;;;;3.78;2.10;;;;;;;22.58;53.03;100551.53;4931620;28;20055;-71
2022/07/14 04:34:02;;;;;;;2.50;1.73;;;;;;;22.55;52.88;100541.03;4932281;28;20059;-73
2022/07/14 04:36:29;;;;;;;3.15;2.00;;;;;;;22.53;53.05;100532.22;4931757;28;20071;-73
2022/07/14 04:38:56;;;;;;;1.75;1.60;;;;;;;22.58;53.33;100538.06;4931238;28;20056;-70
2022/07/14 04:41:24;;;;;;;3.40;1.73;;;;;;;22.50;53.30;100508.25;4931700;28;20052;-71
2022/07/14 04:43:52;;;;;;;4.45;1.90;;;;;;;22.63;53.14;100524.97;4931913;28;20052;-71
2022/07/14 04:46:19;;;;;;;5.15;1.80;;;;;;;22.63;53.23;100527.69;4931862;28;20798;-72
2022/07/14 04:54:16;;;;;;;3.05;1.83;;;;;;;22.50;53.97;100510.09;4932774;28;20056;-73
2022/07/14 04:56:43;;;;;;;2.40;2.20;;;;;;;22.59;53.30;100523.56;4929377;28;20751;-72
2022/07/14 04:59:24;;;;;;;2.35;2.08;;;;;;;22.68;53.40;100529.91;4931216;28;20139;-72
2022/07/14 05:01:51;;;;;;;2.58;1.90;;;;;;;22.64;53.54;100525.81;4932046;28;20141;-72
2022/07/14 05:04:19;;;;;;;7.05;1.95;;;;;;;22.74;53.34;100540.13;4925856;28;20059;-71
2022/07/14 05:06:46;;;;;;;2.28;2.00;;;;;;;22.78;53.21;100541.59;4923529;28;20123;-72
2022/07/14 05:09:13;;;;;;;5.35;2.00;;;;;;;22.77;53.12;100530.94;4930666;28;20056;-72
2022/07/14 05:11:40;;;;;;;3.58;1.90;;;;;;;22.86;52.69;100552.50;4931771;28;20055;-72
2022/07/14 05:14:07;;;;;;;2.25;2.00;;;;;;;22.68;52.84;100533.47;4932116;28;20047;-72
2022/07/14 05:16:34;;;;;;;2.35;2.13;;;;;;;22.77;52.65;100558.78;4930747;28;20051;-72
2022/07/14 05:19:21;;;;;;;4.57;1.88;;;;;;;22.77;53.47;100560.63;4930074;28;20060;-72
2022/07/14 05:21:48;;;;;;;3.30;2.10;;;;;;;22.74;52.80;100559.88;4932379;28;20118;-72
2022/07/14 05:24:15;;;;;;;2.28;1.85;;;;;;;22.79;53.63;100561.34;4932993;28;20063;-72
2022/07/14 05:26:42;;;;;;;1.73;1.63;;;;;;;22.71;54.05;100552.06;4925144;28;20107;-73
2022/07/14 05:29:16;;;;;;;3.85;2.20;;;;;;;22.85;53.35;100563.44;4931001;28;20147;-73
2022/07/14 05:31:42;;;;;;;3.45;2.25;;;;;;;22.81;53.04;100565.59;4927317;28;20079;-74
2022/07/14 05:34:09;;;;;;;3.17;2.10;;;;;;;22.69;53.09;100559.47;4931342;28;20827;-72
2022/07/14 05:36:36;;;;;;;5.10;2.25;;;;;;;22.74;53.27;100567.13;4932436;28;20107;-73
2022/07/14 05:39:03;;;;;;;4.20;2.40;;;;;;;22.78;53.53;100565.88;4931578;29;20047;-73
2022/07/14 05:41:30;;;;;;;4.18;2.00;;;;;;;22.79;53.14;100548.69;4933368;28;20055;-73
2022/07/14 05:43:56;;;;;;;2.47;2.28;;;;;;;22.96;53.08;100565.97;4934492;28;20079;-73
2022/07/14 05:46:23;;;;;;;12.05;3.03;;;;;;;23.01;52.84;100558.25;4931975;28;20051;-74
2022/07/14 05:48:50;;;;;;;4.00;2.17;;;;;;;23.09;52.77;100561.09;4932706;28;20497;-73
2022/07/14 05:51:18;;;;;;;2.17;1.90;;;;;;;23.21;52.18;100570.69;4933497;28;20060;-75
2022/07/14 05:53:45;;;;;;;4.07;2.67;;;;;;;23.39;52.19;100562.66;4923423;28;20052;-72
2022/07/14 05:56:16;;;;;;;4.43;2.20;;;;;;;23.47;50.70;100561.88;4931692;28;20074;-73
2022/07/14 05:58:44;;;;;;;3.10;2.33;;;;;;;23.44;51.29;100561.22;4922912;28;20075;-74
2022/07/14 06:01:11;;;;;;;2.50;2.10;;;;;;;23.25;51.13;100534.28;4932872;28;20051;-73
2022/07/14 06:03:38;;;;;;;2.35;2.15;;;;;;;23.28;51.43;100544.81;4932257;28;20060;-72
2022/07/14 06:06:08;;;;;;;4.47;1.80;;;;;;;23.24;51.85;100548.78;4932912;28;20066;-74
2022/07/14 06:08:35;;;;;;;4.68;2.13;;;;;;;23.24;52.26;100570.41;4931044;28;20043;-73
2022/07/14 06:11:03;;;;;;;2.17;1.98;;;;;;;23.23;51.97;100566.00;4931556;28;20063;-73
2022/07/14 06:13:31;;;;;;;4.63;2.40;;;;;;;23.08;51.69;100535.94;4930976;28;20098;-71
2022/07/14 06:15:59;;;;;;;4.72;2.00;;;;;;;23.22;52.15;100556.19;4934043;28;20051;-74
2022/07/14 06:18:27;;;;;;;4.07;2.30;;;;;;;23.22;52.30;100547.25;4933715;28;20055;-76
2022/07/14 06:20:54;;;;;;;3.95;2.30;;;;;;;23.11;52.32;100536.63;4935570;28;20065;-73
2022/07/14 06:23:21;;;;;;;2.28;2.08;;;;;;;23.19;52.76;100550.22;4936280;28;20119;-72
2022/07/14 06:25:47;;;;;;;3.55;2.22;;;;;;;23.25;52.97;100555.06;4938055;28;20036;-73
2022/07/14 06:28:14;;;;;;;4.22;2.65;;;;;;;23.32;52.76;100553.44;4935653;28;20067;-72
2022/07/14 06:30:41;;;;;;;3.67;2.40;;;;;;;23.29;52.25;100530.28;4935208;28;20047;-72
2022/07/14 06:33:08;;;;;;;2.65;2.38;;;;;;;23.50;52.34;100531.84;4937891;28;20058;-73
2022/07/14 06:35:41;;;;;;;3.95;2.45;;;;;;;23.95;51.89;100548.09;4937257;28;20051;-72
2022/07/14 06:38:27;;;;;;;2.78;2.47;;;;;;;24.25;51.36;100538.75;4933787;28;20316;-73
2022/07/14 06:40:54;;;;;;;3.55;2.20;;;;;;;24.40;50.59;100508.25;4934612;28;20665;-74
2022/07/14 06:43:22;;;;;;;5.18;2.60;;;;;;;24.78;49.65;100533.22;4934576;28;20056;-73
2022/07/14 06:45:49;;;;;;;4.82;2.70;;;;;;;24.94;49.17;100532.50;4935216;28;20055;-73
2022/07/14 06:48:17;;;;;;;4.93;2.70;;;;;;;25.07;48.59;100524.78;4932891;28;20051;-73
2022/07/14 06:50:45;;;;;;;3.70;2.42;;;;;;;25.11;49.17;100518.03;4933457;28;20080;-75
2022/07/14 06:53:13;;;;;;;5.85;2.50;;;;;;;25.17;48.66;100523.66;4934557;28;20433;-72
2022/07/14 06:55:40;;;;;;;3.25;2.60;;;;;;;25.08;48.86;100530.03;4933840;28;20078;-73
2022/07/14 06:58:07;;;;;;;3.58;2.50;;;;;;;24.99;48.99;100532.88;4932682;28;20110;-73
2022/07/14 07:00:34;;;;;;;5.32;2.45;;;;;;;24.91;49.53;100530.91;4933151;28;20396;-73
2022/07/14 07:03:00;;;;;;;4.18;2.67;;;;;;;24.89;50.08;100529.38;4934276;28;20047;-73
2022/07/14 07:08:13;;;;;;;4.57;2.75;;;;;;;25.02;49.38;100530.69;4932969;28;20048;-72
2022/07/14 07:10:43;;;;;;;3.97;2.60;;;;;;;25.01;49.18;100533.56;4932763;28;20496;-73
2022/07/14 07:13:10;;;;;;;8.48;2.95;;;;;;;25.02;48.75;100527.13;4934781;28;20060;-73
2022/07/14 07:15:39;;;;;;;5.63;2.55;;;;;;;24.98;49.31;100528.47;4935806;28;20043;-75
2022/07/14 07:18:07;;;;;;;3.80;3.00;;;;;;;24.90;48.85;100528.38;4932858;28;20051;-73
2022/07/14 07:20:35;;;;;;;3.80;2.83;;;;;;;24.82;49.44;100527.34;4932504;28;20058;-75
2022/07/14 07:23:03;;;;;;;5.60;2.92;;;;;;;24.66;49.45;100510.97;4935437;28;20130;-74
2022/07/14 07:25:30;;;;;;;3.10;2.70;;;;;;;24.74;49.92;100529.13;4936065;28;20400;-74
2022/07/14 07:27:59;;;;;;;3.58;2.42;;;;;;;24.79;49.51;100532.22;4932437;28;20047;-76
2022/07/14 07:30:25;;;;;;;4.80;2.88;;;;;;;24.76;50.40;100527.97;4932912;28;20052;-72
2022/07/14 07:32:52;;;;;;;3.67;2.63;;;;;;;24.63;50.07;100510.44;4933976;28;20130;-74
2022/07/14 07:35:20;;;;;;;3.67;2.75;;;;;;;24.57;49.71;100505.66;4933955;28;20047;-74
2022/07/14 07:37:47;;;;;;;5.45;2.70;;;;;;;24.59;50.14;100528.00;4933672;28;20054;-74
2022/07/14 07:40:15;;;;;;;2.67;2.40;;;;;;;24.37;50.15;100508.59;4933424;28;20680;-72
2022/07/14 07:42:42;;;;;;;3.72;2.90;;;;;;;24.41;50.47;100526.19;4932845;28;20058;-74
2022/07/14 07:45:10;;;;;;;4.55;2.90;;;;;;;24.43;50.59;100518.78;4932886;28;20058;-73
2022/07/14 07:47:37;;;;;;;11.80;5.65;;;;;;;24.62;51.09;100531.25;4933131;28;20563;-75
2022/07/14 07:50:05;;;;;;;6.00;2.90;;;;;;;24.74;50.86;100526.41;4933342;28;20068;-72
2022/07/14 07:52:33;;;;;;;5.68;3.03;;;;;;;24.81;50.57;100519.38;4932288;28;20055;-74
2022/07/14 07:55:00;;;;;;;5.60;2.60;;;;;;;24.91;50.02;100513.81;4932989;28;20075;-73
2022/07/14 07:57:45;;;;;;;6.30;2.80;;;;;;;24.89;49.93;100510.41;4932224;28;20048;-74
2022/07/14 08:00:13;;;;;;;3.20;2.60;;;;;;;24.95;49.82;100513.38;4932815;28;20139;-74
2022/07/14 08:03:00;;;;;;;6.85;3.15;;;;;;;24.97;50.16;100518.63;4932263;28;20500;-73
2022/07/14 08:05:28;;;;;;;8.73;3.25;;;;;;;;;;4930952;28;20142;-74
2022/07/14 08:08:14;;;;;;;7.40;2.78;;;;;;;25.19;49.83;100520.75;4932346;28;20087;-74
2022/07/14 08:10:42;;;;;;;3.50;3.00;;;;;;;25.24;49.36;100509.44;4932859;28;20059;-73
2022/07/14 08:13:09;;;;;;;3.72;2.60;;;;;;;25.23;48.95;100489.59;4929125;28;20087;-75
2022/07/14 08:15:37;;;;;;;4.22;2.63;;;;;;;25.50;49.35;100504.75;4933629;28;20089;-72
2022/07/14 08:18:04;;;;;;;4.05;3.03;;;;;;;25.62;48.77;100506.19;4932384;28;20075;-74
2022/07/14 08:20:32;;;;;;;5.28;3.00;;;;;;;25.31;48.70;100457.13;4932678;28;20071;-75
2022/07/14 08:23:00;;;;;;;3.65;2.90;;;;;;;25.55;48.76;100507.84;4933761;28;20048;-75
2022/07/14 08:25:27;;;;;;;3.45;2.88;;;;;;;25.51;48.87;100507.31;4937864;28;20124;-73
2022/07/14 08:27:55;;;;;;;5.20;3.53;;;;;;;25.61;48.99;100525.31;4934003;28;20052;-72
2022/07/14 08:30:21;;;;;;;8.05;3.00;;;;;;;25.58;49.41;100509.38;4933196;28;20087;-73
2022/07/14 08:32:51;;;;;;;6.65;3.53;;;;;;;25.50;49.51;100500.19;4931995;28;20058;-72
2022/07/14 08:35:21;;;;;;;5.72;2.92;;;;;;;25.43;49.77;100506.44;4930285;29;20056;-74
2022/07/14 08:37:48;;;;;;;4.65;2.90;;;;;;;25.42;49.83;100513.72;4932146;28;20052;-73
2022/07/14 08:40:21;;;;;;;4.95;2.65;;;;;;;25.45;49.87;100507.13;4931915;28;20409;-72
2022/07/14 08:42:50;;;;;;;3.75;3.10;;;;;;;25.56;50.33;100514.09;4931789;28;20047;-72
2022/07/14 08:45:18;;;;;;;4.32;2.90;;;;;;;25.74;49.21;100510.28;4931572;28;20051;-73
2022/07/14 08:47:46;;;;;;;4.22;3.35;;;;;;;26.16;48.36;100498.44;4931427;28;20083;-72
2022/07/14 08:50:15;;;;;;;4.47;2.90;;;;;;;26.56;47.58;100500.31;4932283;28;20561;-74
2022/07/14 08:52:43;;;;;;;6.22;2.85;;;;;;;26.68;47.16;100498.91;4931984;28;20102;-73
2022/07/14 08:55:12;;;;;;;4.07;3.20;;;;;;;26.95;46.00;100505.81;4932108;28;20067;-72
2022/07/14 08:57:40;;;;;;;3.17;2.88;;;;;;;27.28;45.02;100509.25;4931411;28;20044;-73
2022/07/14 09:00:11;;;;;;;3.13;2.85;;;;;;;27.62;44.45;100508.09;4931359;28;20114;-72
2022/07/14 09:02:39;;;;;;;5.75;3.00;;;;;;;27.83;44.22;100509.16;4931515;28;20055;-75
2022/07/14 09:05:26;;;;;;;4.75;3.42;;;;;;;27.76;42.76;100475.53;4930329;28;20135;-73
2022/07/14 09:07:57;;;;;;;3.00;2.80;;;;;;;27.85;43.39;100500.81;4931796;28;20058;-74
2022/07/14 09:10:28;;;;;;;3.60;3.30;;;;;;;27.79;43.84;100480.59;4931055;28;20134;-74
2022/07/14 09:13:13;;;;;;;4.05;2.92;;;;;;;27.74;44.38;100493.91;4931860;28;20075;-73
2022/07/14 09:15:46;;;;;;;4.18;3.03;;;;;;;27.87;44.00;100493.28;4931405;28;20055;-75
2022/07/14 09:18:24;;;;;;;5.03;3.22;;;;;;;27.93;43.90;100487.97;4934334;28;20107;-72
2022/07/14 09:20:53;;;;;;;4.38;2.88;;;;;;;27.74;44.62;100488.44;4931407;28;20485;-72
2022/07/14 09:23:28;;;;;;;3.20;2.70;;;;;;;27.41;44.51;100471.47;4931823;28;20115;-75
2022/07/14 09:26:16;;;;;;;3.38;2.97;;;;;;;27.43;44.63;100484.88;4935145;28;20139;-73
2022/07/14 09:28:46;;;;;;;4.22;2.90;;;;;;;27.56;45.12;100480.56;4925247;28;24666;-72
2022/07/14 09:31:23;;;;;;;3.88;3.25;;;;;;;27.84;44.07;100480.06;4927732;28;20052;-73
2022/07/14 09:33:52;;;;;;;3.25;2.70;;;;;;;27.85;43.68;100468.16;4928049;28;20564;-75
2022/07/14 09:36:34;;;;;;;4.53;3.10;;;;;;;27.94;43.07;100475.22;4932052;28;20052;-73
2022/07/14 09:39:07;;;;;;;3.65;3.08;;;;;;;27.76;42.71;100472.78;4930885;28;20059;-75
2022/07/14 09:41:50;;;;;;;4.70;3.15;;;;;;;27.67;43.55;100471.19;4929983;28;20055;-74
2022/07/14 09:44:19;;;;;;;7.10;3.10;;;;;;;27.70;43.40;100461.81;4928382;28;20136;-75
2022/07/14 09:46:57;;;;;;;3.60;3.30;;;;;;;27.62;43.40;100467.28;4926793;28;20047;-73
2022/07/14 09:49:27;;;;;;;5.22;3.58;;;;;;;27.41;43.85;100457.88;4930765;28;20051;-74
2022/07/14 09:52:03;;;;;;;7.15;3.90;;;;;;;27.30;44.42;100431.09;4935648;28;20467;-74
2022/07/14 09:54:47;;;;;;;5.80;3.28;;;;;;;27.50;44.91;100454.09;4934995;28;20051;-73
2022/07/14 09:57:14;;;;;;;4.47;3.67;;;;;;;27.63;44.02;100453.50;4935451;28;20051;-74
2022/07/14 09:59:50;;;;;;;4.38;3.65;;;;;;;27.72;43.90;100437.97;4933547;29;20532;-73
2022/07/14 10:02:22;;;;;;;4.95;3.42;;;;;;;27.91;43.50;100445.63;4932740;28;20059;-74
2022/07/14 10:04:51;;;;;;;5.25;3.83;;;;;;;27.89;42.82;100442.25;4934433;28;20051;-72
2022/07/14 10:07:18;;;;;;;4.72;3.78;;;;;;;27.75;43.11;100429.44;4936060;28;20095;-73
2022/07/14 10:09:55;;;;;;;4.55;3.05;;;;;;;27.84;42.93;100436.53;4934417;28;20103;-73
2022/07/14 10:12:25;;;;;;;3.58;3.20;;;;;;;28.04;42.90;100445.00;4934800;28;20365;-73
2022/07/14 10:14:53;;;;;;;6.18;3.42;;;;;;;28.26;42.05;100430.56;4934893;28;20639;-73
2022/07/14 10:17:21;;;;;;;4.50;3.35;;;;;;;28.45;41.85;100438.19;4934608;28;20048;-74
2022/07/14 10:19:49;;;;;;;3.53;3.22;;;;;;;28.66;41.38;100434.69;4934315;28;20058;-73
2022/07/14 10:22:18;;;;;;;4.38;3.78;;;;;;;28.70;40.98;100421.56;4934364;28;20071;-73
2022/07/14 10:24:47;;;;;;;4.33;3.63;;;;;;;28.72;41.97;100422.22;4933586;28;20481;-73
2022/07/14 10:27:18;;;;;;;4.20;3.63;;;;;;;28.67;40.80;100425.50;4931181;28;20399;-74
2022/07/14 10:29:52;;;;;;;4.18;3.78;;;;;;;28.80;40.99;100428.47;4933969;28;20048;-74
2022/07/14 10:32:39;;;;;;;5.50;3.45;;;;;;;28.92;40.92;100421.47;4933878;28;20123;-75
2022/07/14 10:35:41;;;;;;;4.50;3.53;;;;;;;29.07;41.12;100415.16;4934108;28;20047;-71
2022/07/14 10:38:10;;;;;;;3.97;3.50;;;;;;;29.26;40.03;100409.09;4933884;28;20048;-72
2022/07/14 10:41:05;;;;;;;6.18;3.70;;;;;;;29.30;40.00;100388.56;4935297;28;20055;-73
2022/07/14 10:44:18;;;;;;;6.53;3.47;;;;;;;29.69;40.99;100392.75;4936275;28;20048;-73
2022/07/14 10:46:47;;;;;;;7.60;3.25;;;;;;;30.00;39.42;100398.72;4925948;28;20115;-74
2022/07/14 10:49:16;;;;;;;5.35;3.70;;;;;;;30.06;39.09;100387.03;4935782;28;20052;-73
2022/07/14 10:51:49;;;;;;;3.95;3.55;;;;;;;29.81;39.84;100385.72;4938054;28;20059;-74
2022/07/14 10:54:24;;;;;;;3.72;3.20;;;;;;;29.67;39.81;100391.06;4932981;29;20055;-72
2022/07/14 10:57:14;;;;;;;3.72;3.42;;;;;;;29.85;39.81;100384.28;4933535;28;20143;-72
2022/07/14 10:59:42;;;;;;;4.18;3.13;;;;;;;29.67;40.03;100391.06;4933536;28;20090;-71
2022/07/14 11:02:12;;;;;;;4.22;3.83;;;;;;;29.52;39.59;100371.19;4931794;29;20055;-73
2022/07/14 11:07:47;;;;;;;5.32;3.80;;;;;;;29.43;40.04;100377.84;4931136;28;19927;-73
2022/07/14 11:10:16;;;;;;;6.88;3.75;;;;;;;29.53;40.21;100385.69;4931373;28;20055;-73
2022/07/14 11:13:02;;;;;;;5.45;3.60;;;;;;;29.61;39.12;100378.19;4934846;28;20059;-73
2022/07/14 11:15:43;;;;;;;6.07;4.03;;;;;;;29.71;39.19;100383.34;4932145;28;20078;-73
2022/07/14 11:18:26;;;;;;;4.07;3.70;;;;;;;29.56;39.77;100377.97;4936515;28;20064;-73
2022/07/14 11:20:57;;;;;;;5.72;3.80;;;;;;;29.69;39.51;100388.16;4931677;28;20104;-73
2022/07/14 11:23:26;;;;;;;6.00;3.33;;;;;;;29.89;38.87;100377.41;4933249;28;20563;-72
2022/07/14 11:25:54;;;;;;;7.53;3.63;;;;;;;29.91;39.34;100381.59;4937295;28;20051;-73
2022/07/14 11:28:51;;;;;;;11.65;4.10;;;;;;;29.65;39.48;100381.38;4932999;28;20365;-73
2022/07/14 11:31:22;;;;;;;6.63;3.88;;;;;;;29.27;40.78;100380.78;4929157;28;20074;-73
2022/07/14 11:36:39;;;;;;;4.40;3.92;;;;;;;28.73;41.88;100375.69;4932313;28;20440;-71
2022/07/14 11:39:22;;;;;;;4.38;3.65;;;;;;;28.76;41.94;100405.31;4929046;29;20056;-73
2022/07/14 11:42:02;;;;;;;4.90;3.47;;;;;;;28.24;41.75;100399.94;4933471;28;20051;-72
2022/07/14 11:44:40;;;;;;;4.43;3.38;;;;;;;28.36;41.79;100405.75;4933035;28;20048;-72
2022/07/14 11:47:20;;;;;;;5.78;3.40;;;;;;;28.40;42.19;100396.19;4933271;28;20066;-72
2022/07/14 11:49:54;;;;;;;6.70;3.13;;;;;;;28.54;41.30;100400.78;4927530;28;20069;-73
2022/07/14 11:52:30;;;;;;;6.18;3.25;;;;;;;28.46;40.10;100384.56;4932384;28;20404;-73
2022/07/14 11:55:00;;;;;;;5.53;3.40;;;;;;;28.47;40.07;100398.00;4932784;28;20058;-73
2022/07/14 11:57:28;;;;;;;3.88;3.05;;;;;;;28.35;41.04;100396.75;4933524;28;20064;-73